Terminal Aerodrome Forecast
Issued by NWS

Home | Current Version | Previous Version | Text Only | Print | Product List | Glossary On
Versions: 1 2 3 4 5 6 7 8 9 10 11 12 13 14 15 16 17 18 19
153
FTUS43 KLSX 241726
TAFSUS
TAF
KSUS 241726Z 2418/2518 19016G29KT P6SM FEW250
     FM250300 16011G20KT P6SM VCTS OVC070CB
     FM250400 15010G19KT 5SM -SHRA VCTS OVC025CB
     FM251000 15009KT P6SM OVC030
     FM251500 16013KT P6SM VCTS BKN040CB=

USA.gov is the U.S. government's official web portal to all federal, state and local government web resources and services.